sensor_id;sensor_type;location;lat;lon;timestamp;temperature;humidity
24902;DHT22;31328;51.402;0.016;2023-12-07T00:02:05;6.10;99.90
24902;DHT22;31328;51.402;0.016;2023-12-07T00:04:31;6.10;99.90
24902;DHT22;31328;51.402;0.016;2023-12-07T00:06:57;6.10;99.90
24902;DHT22;31328;51.402;0.016;2023-12-07T00:09:24;6.10;99.90
24902;DHT22;31328;51.402;0.016;2023-12-07T00:11:50;6.20;99.90
24902;DHT22;31328;51.402;0.016;2023-12-07T00:14:16;6.20;99.90
24902;DHT22;31328;51.402;0.016;2023-12-07T00:16:43;6.20;99.90
24902;DHT22;31328;51.402;0.016;2023-12-07T00:19:09;6.30;99.90
24902;DHT22;31328;51.402;0.016;2023-12-07T00:21:35;6.30;99.90
24902;DHT22;31328;51.402;0.016;2023-12-07T00:24:02;6.30;99.90
24902;DHT22;31328;51.402;0.016;2023-12-07T00:26:28;6.40;99.90
24902;DHT22;31328;51.402;0.016;2023-12-07T00:28:55;6.40;99.90
24902;DHT22;31328;51.402;0.016;2023-12-07T00:31:21;6.40;99.90
24902;DHT22;31328;51.402;0.016;2023-12-07T00:33:48;6.40;99.90
24902;DHT22;31328;51.402;0.016;2023-12-07T00:36:14;6.50;99.90
24902;DHT22;31328;51.402;0.016;2023-12-07T00:38:40;6.50;99.90
24902;DHT22;31328;51.402;0.016;2023-12-07T00:41:07;6.50;99.90
24902;DHT22;31328;51.402;0.016;2023-12-07T00:43:33;6.50;99.90
24902;DHT22;31328;51.402;0.016;2023-12-07T00:46:00;6.50;99.90
24902;DHT22;31328;51.402;0.016;2023-12-07T00:48:26;6.60;99.90
24902;DHT22;31328;51.402;0.016;2023-12-07T00:50:52;6.60;99.90
24902;DHT22;31328;51.402;0.016;2023-12-07T00:53:19;6.60;99.90
24902;DHT22;31328;51.402;0.016;2023-12-07T00:55:45;6.60;99.90
24902;DHT22;31328;51.402;0.016;2023-12-07T00:58:12;6.60;99.90
24902;DHT22;31328;51.402;0.016;2023-12-07T01:00:38;6.70;99.90
24902;DHT22;31328;51.402;0.016;2023-12-07T01:03:05;6.70;99.90
24902;DHT22;31328;51.402;0.016;2023-12-07T01:05:31;6.70;99.90
24902;DHT22;31328;51.402;0.016;2023-12-07T01:07:58;6.70;99.90
24902;DHT22;31328;51.402;0.016;2023-12-07T01:10:24;6.80;99.90
24902;DHT22;31328;51.402;0.016;2023-12-07T01:12:50;6.80;99.90
24902;DHT22;31328;51.402;0.016;2023-12-07T01:15:17;6.80;99.90
24902;DHT22;31328;51.402;0.016;2023-12-07T01:17:43;6.80;99.90
24902;DHT22;31328;51.402;0.016;2023-12-07T01:20:10;6.80;99.90
24902;DHT22;31328;51.402;0.016;2023-12-07T01:22:41;6.90;99.90
24902;DHT22;31328;51.402;0.016;2023-12-07T01:25:08;6.90;99.90
24902;DHT22;31328;51.402;0.016;2023-12-07T01:27:35;6.90;99.90
24902;DHT22;31328;51.402;0.016;2023-12-07T01:30:01;6.90;99.90
24902;DHT22;31328;51.402;0.016;2023-12-07T01:32:30;6.90;99.90
24902;DHT22;31328;51.402;0.016;2023-12-07T01:34:56;6.90;99.90
24902;DHT22;31328;51.402;0.016;2023-12-07T01:37:22;6.90;99.90
24902;DHT22;31328;51.402;0.016;2023-12-07T01:39:49;6.90;99.90
24902;DHT22;31328;51.402;0.016;2023-12-07T01:42:16;6.90;99.90
24902;DHT22;31328;51.402;0.016;2023-12-07T01:44:42;7.00;99.90
24902;DHT22;31328;51.402;0.016;2023-12-07T01:47:09;7.00;99.90
24902;DHT22;31328;51.402;0.016;2023-12-07T01:49:36;7.00;99.90
24902;DHT22;31328;51.402;0.016;2023-12-07T01:52:03;7.00;99.90
24902;DHT22;31328;51.402;0.016;2023-12-07T01:54:31;7.00;99.90
24902;DHT22;31328;51.402;0.016;2023-12-07T01:56:57;7.00;99.90
24902;DHT22;31328;51.402;0.016;2023-12-07T01:59:24;7.00;99.90
24902;DHT22;31328;51.402;0.016;2023-12-07T02:01:50;7.00;99.90
24902;DHT22;31328;51.402;0.016;2023-12-07T02:04:17;7.00;99.90
24902;DHT22;31328;51.402;0.016;2023-12-07T02:06:43;7.00;99.90
24902;DHT22;31328;51.402;0.016;2023-12-07T02:09:10;7.00;99.90
24902;DHT22;31328;51.402;0.016;2023-12-07T02:11:36;7.10;99.90
24902;DHT22;31328;51.402;0.016;2023-12-07T02:14:02;7.10;99.90
24902;DHT22;31328;51.402;0.016;2023-12-07T02:16:39;7.00;99.90
24902;DHT22;31328;51.402;0.016;2023-12-07T02:21:56;7.10;99.90
24902;DHT22;31328;51.402;0.016;2023-12-07T02:24:26;7.00;99.90
24902;DHT22;31328;51.402;0.016;2023-12-07T02:26:54;7.10;99.90
24902;DHT22;31328;51.402;0.016;2023-12-07T02:29:20;7.10;99.90
24902;DHT22;31328;51.402;0.016;2023-12-07T02:31:47;7.10;99.90
24902;DHT22;31328;51.402;0.016;2023-12-07T02:34:13;7.10;99.90
24902;DHT22;31328;51.402;0.016;2023-12-07T02:36:41;7.10;99.90
24902;DHT22;31328;51.402;0.016;2023-12-07T02:39:09;7.10;99.90
24902;DHT22;31328;51.402;0.016;2023-12-07T02:41:39;7.10;99.90
24902;DHT22;31328;51.402;0.016;2023-12-07T02:44:07;7.10;99.90
24902;DHT22;31328;51.402;0.016;2023-12-07T02:46:33;7.10;99.90
24902;DHT22;31328;51.402;0.016;2023-12-07T02:49:00;7.10;99.90
24902;DHT22;31328;51.402;0.016;2023-12-07T02:51:26;7.10;99.90
24902;DHT22;31328;51.402;0.016;2023-12-07T02:53:53;7.10;99.90
24902;DHT22;31328;51.402;0.016;2023-12-07T02:56:19;7.10;99.90
24902;DHT22;31328;51.402;0.016;2023-12-07T02:58:45;7.10;99.90
24902;DHT22;31328;51.402;0.016;2023-12-07T03:01:12;7.10;99.90
24902;DHT22;31328;51.402;0.016;2023-12-07T03:03:38;7.20;99.90
24902;DHT22;31328;51.402;0.016;2023-12-07T03:06:06;7.10;99.90
24902;DHT22;31328;51.402;0.016;2023-12-07T03:08:33;7.20;99.90
24902;DHT22;31328;51.402;0.016;2023-12-07T03:10:59;7.20;99.90
24902;DHT22;31328;51.402;0.016;2023-12-07T03:13:26;7.20;99.90
24902;DHT22;31328;51.402;0.016;2023-12-07T03:15:52;7.20;99.90
24902;DHT22;31328;51.402;0.016;2023-12-07T03:18:18;7.20;99.90
24902;DHT22;31328;51.402;0.016;2023-12-07T03:20:44;7.20;99.90
24902;DHT22;31328;51.402;0.016;2023-12-07T03:23:11;7.20;99.90
24902;DHT22;31328;51.402;0.016;2023-12-07T03:25:37;7.20;99.90
24902;DHT22;31328;51.402;0.016;2023-12-07T03:28:03;7.20;99.90
24902;DHT22;31328;51.402;0.016;2023-12-07T03:30:30;7.20;99.90
24902;DHT22;31328;51.402;0.016;2023-12-07T03:32:56;7.20;99.90
24902;DHT22;31328;51.402;0.016;2023-12-07T03:35:22;7.30;99.90
24902;DHT22;31328;51.402;0.016;2023-12-07T03:37:49;7.30;99.90
24902;DHT22;31328;51.402;0.016;2023-12-07T03:40:15;7.30;99.90
24902;DHT22;31328;51.402;0.016;2023-12-07T03:42:42;7.30;99.90
24902;DHT22;31328;51.402;0.016;2023-12-07T03:45:08;7.30;99.90
24902;DHT22;31328;51.402;0.016;2023-12-07T03:47:35;7.30;99.90
24902;DHT22;31328;51.402;0.016;2023-12-07T03:50:01;7.30;99.90
24902;DHT22;31328;51.402;0.016;2023-12-07T03:52:27;7.30;99.90
24902;DHT22;31328;51.402;0.016;2023-12-07T03:54:54;7.30;99.90
24902;DHT22;31328;51.402;0.016;2023-12-07T03:57:20;7.40;99.90
24902;DHT22;31328;51.402;0.016;2023-12-07T03:59:46;7.40;99.90
24902;DHT22;31328;51.402;0.016;2023-12-07T04:02:13;7.40;99.90
24902;DHT22;31328;51.402;0.016;2023-12-07T04:04:39;7.40;99.90
24902;DHT22;31328;51.402;0.016;2023-12-07T04:07:05;7.40;99.90
24902;DHT22;31328;51.402;0.016;2023-12-07T04:09:32;7.40;99.90
24902;DHT22;31328;51.402;0.016;2023-12-07T04:11:58;7.40;99.90
24902;DHT22;31328;51.402;0.016;2023-12-07T04:14:25;7.40;99.90
24902;DHT22;31328;51.402;0.016;2023-12-07T04:16:51;7.40;99.90
24902;DHT22;31328;51.402;0.016;2023-12-07T04:19:17;7.40;99.90
24902;DHT22;31328;51.402;0.016;2023-12-07T04:21:44;7.40;99.90
24902;DHT22;31328;51.402;0.016;2023-12-07T04:24:10;7.40;99.90
24902;DHT22;31328;51.402;0.016;2023-12-07T04:26:36;7.40;99.90
24902;DHT22;31328;51.402;0.016;2023-12-07T04:29:02;7.40;99.90
24902;DHT22;31328;51.402;0.016;2023-12-07T04:31:29;7.40;99.90
24902;DHT22;31328;51.402;0.016;2023-12-07T04:33:55;7.40;99.90
24902;DHT22;31328;51.402;0.016;2023-12-07T04:36:21;7.40;99.90
24902;DHT22;31328;51.402;0.016;2023-12-07T04:38:48;7.40;99.90
24902;DHT22;31328;51.402;0.016;2023-12-07T04:41:14;7.40;99.90
24902;DHT22;31328;51.402;0.016;2023-12-07T04:43:40;7.30;99.90
24902;DHT22;31328;51.402;0.016;2023-12-07T04:46:07;7.30;99.90
24902;DHT22;31328;51.402;0.016;2023-12-07T04:48:33;7.30;99.90
24902;DHT22;31328;51.402;0.016;2023-12-07T04:50:59;7.30;99.90
24902;DHT22;31328;51.402;0.016;2023-12-07T04:53:26;7.30;99.90
24902;DHT22;31328;51.402;0.016;2023-12-07T04:55:52;7.30;99.90
24902;DHT22;31328;51.402;0.016;2023-12-07T04:58:19;7.30;99.90
24902;DHT22;31328;51.402;0.016;2023-12-07T05:00:45;7.40;99.90
24902;DHT22;31328;51.402;0.016;2023-12-07T05:03:12;7.40;99.90
24902;DHT22;31328;51.402;0.016;2023-12-07T05:05:38;7.40;99.90
24902;DHT22;31328;51.402;0.016;2023-12-07T05:08:04;7.40;99.90
24902;DHT22;31328;51.402;0.016;2023-12-07T05:10:31;7.40;99.90
24902;DHT22;31328;51.402;0.016;2023-12-07T05:12:57;7.40;99.90
24902;DHT22;31328;51.402;0.016;2023-12-07T05:15:23;7.40;99.90
24902;DHT22;31328;51.402;0.016;2023-12-07T05:17:50;7.40;99.90
24902;DHT22;31328;51.402;0.016;2023-12-07T05:20:17;7.40;99.90
24902;DHT22;31328;51.402;0.016;2023-12-07T05:22:48;7.40;99.90
24902;DHT22;31328;51.402;0.016;2023-12-07T05:25:14;7.40;99.90
24902;DHT22;31328;51.402;0.016;2023-12-07T05:27:41;7.40;99.90
24902;DHT22;31328;51.402;0.016;2023-12-07T05:30:07;7.40;99.90
24902;DHT22;31328;51.402;0.016;2023-12-07T05:32:34;7.40;99.90
24902;DHT22;31328;51.402;0.016;2023-12-07T05:35:00;7.40;99.90
24902;DHT22;31328;51.402;0.016;2023-12-07T05:37:27;7.40;99.90
24902;DHT22;31328;51.402;0.016;2023-12-07T05:39:54;7.40;99.90
24902;DHT22;31328;51.402;0.016;2023-12-07T05:42:20;7.40;99.90
24902;DHT22;31328;51.402;0.016;2023-12-07T05:44:47;7.40;99.90
24902;DHT22;31328;51.402;0.016;2023-12-07T05:47:13;7.30;99.90
24902;DHT22;31328;51.402;0.016;2023-12-07T05:49:40;7.40;99.90
24902;DHT22;31328;51.402;0.016;2023-12-07T05:52:06;7.40;99.90
24902;DHT22;31328;51.402;0.016;2023-12-07T05:54:32;7.40;99.90
24902;DHT22;31328;51.402;0.016;2023-12-07T05:57:00;7.40;99.90
24902;DHT22;31328;51.402;0.016;2023-12-07T05:59:26;7.30;99.90
24902;DHT22;31328;51.402;0.016;2023-12-07T06:01:53;7.30;99.90
24902;DHT22;31328;51.402;0.016;2023-12-07T06:04:19;7.30;99.90
24902;DHT22;31328;51.402;0.016;2023-12-07T06:06:46;7.30;99.90
24902;DHT22;31328;51.402;0.016;2023-12-07T06:09:12;7.30;99.90
24902;DHT22;31328;51.402;0.016;2023-12-07T06:11:39;7.30;99.90
24902;DHT22;31328;51.402;0.016;2023-12-07T06:14:06;7.30;99.90
24902;DHT22;31328;51.402;0.016;2023-12-07T06:16:34;7.30;99.90
24902;DHT22;31328;51.402;0.016;2023-12-07T06:19:01;7.30;99.90
24902;DHT22;31328;51.402;0.016;2023-12-07T06:21:27;7.30;99.90
24902;DHT22;31328;51.402;0.016;2023-12-07T06:23:56;7.30;99.90
24902;DHT22;31328;51.402;0.016;2023-12-07T06:26:22;7.30;99.90
24902;DHT22;31328;51.402;0.016;2023-12-07T06:28:49;7.30;99.90
24902;DHT22;31328;51.402;0.016;2023-12-07T06:31:15;7.30;99.90
24902;DHT22;31328;51.402;0.016;2023-12-07T06:33:46;7.30;99.90
24902;DHT22;31328;51.402;0.016;2023-12-07T06:36:18;7.30;99.90
24902;DHT22;31328;51.402;0.016;2023-12-07T06:38:45;7.30;99.90
24902;DHT22;31328;51.402;0.016;2023-12-07T06:41:12;7.30;99.90
24902;DHT22;31328;51.402;0.016;2023-12-07T06:43:38;7.30;99.90
24902;DHT22;31328;51.402;0.016;2023-12-07T06:46:05;7.30;99.90
24902;DHT22;31328;51.402;0.016;2023-12-07T06:48:31;7.30;99.90
24902;DHT22;31328;51.402;0.016;2023-12-07T06:50:58;7.40;99.90
24902;DHT22;31328;51.402;0.016;2023-12-07T06:53:24;7.40;99.90
24902;DHT22;31328;51.402;0.016;2023-12-07T06:55:50;7.40;99.90
24902;DHT22;31328;51.402;0.016;2023-12-07T06:58:17;7.40;99.90
24902;DHT22;31328;51.402;0.016;2023-12-07T07:00:43;7.40;99.90
24902;DHT22;31328;51.402;0.016;2023-12-07T07:03:10;7.40;99.90
24902;DHT22;31328;51.402;0.016;2023-12-07T07:05:36;7.40;99.90
24902;DHT22;31328;51.402;0.016;2023-12-07T07:08:03;7.40;99.90
24902;DHT22;31328;51.402;0.016;2023-12-07T07:10:29;7.40;99.90
24902;DHT22;31328;51.402;0.016;2023-12-07T07:13:02;7.40;99.90
24902;DHT22;31328;51.402;0.016;2023-12-07T07:15:31;7.40;99.90
24902;DHT22;31328;51.402;0.016;2023-12-07T07:17:58;7.40;99.90
24902;DHT22;31328;51.402;0.016;2023-12-07T07:20:25;7.40;99.90
24902;DHT22;31328;51.402;0.016;2023-12-07T07:22:52;7.40;99.90
24902;DHT22;31328;51.402;0.016;2023-12-07T07:25:18;7.40;99.90
24902;DHT22;31328;51.402;0.016;2023-12-07T07:27:46;7.40;99.90
24902;DHT22;31328;51.402;0.016;2023-12-07T07:30:12;7.40;99.90
24902;DHT22;31328;51.402;0.016;2023-12-07T07:32:40;7.40;99.90
24902;DHT22;31328;51.402;0.016;2023-12-07T07:35:07;7.40;99.90
24902;DHT22;31328;51.402;0.016;2023-12-07T07:37:33;7.50;99.90
24902;DHT22;31328;51.402;0.016;2023-12-07T07:40:00;7.50;99.90
24902;DHT22;31328;51.402;0.016;2023-12-07T07:42:26;7.50;99.90
24902;DHT22;31328;51.402;0.016;2023-12-07T07:44:52;7.50;99.90
24902;DHT22;31328;51.402;0.016;2023-12-07T07:47:19;7.50;99.90
24902;DHT22;31328;51.402;0.016;2023-12-07T07:49:45;7.50;99.90
24902;DHT22;31328;51.402;0.016;2023-12-07T07:52:11;7.50;99.90
24902;DHT22;31328;51.402;0.016;2023-12-07T07:54:38;7.50;99.90
24902;DHT22;31328;51.402;0.016;2023-12-07T07:57:04;7.50;99.90
24902;DHT22;31328;51.402;0.016;2023-12-07T07:59:31;7.50;99.90
24902;DHT22;31328;51.402;0.016;2023-12-07T08:01:57;7.50;99.90
24902;DHT22;31328;51.402;0.016;2023-12-07T08:04:24;7.50;99.90
24902;DHT22;31328;51.402;0.016;2023-12-07T08:06:50;7.50;99.90
24902;DHT22;31328;51.402;0.016;2023-12-07T08:09:16;7.50;99.90
24902;DHT22;31328;51.402;0.016;2023-12-07T08:11:43;7.50;99.90
24902;DHT22;31328;51.402;0.016;2023-12-07T08:14:09;7.50;99.90
24902;DHT22;31328;51.402;0.016;2023-12-07T08:16:35;7.50;99.90
24902;DHT22;31328;51.402;0.016;2023-12-07T08:19:02;7.60;99.90
24902;DHT22;31328;51.402;0.016;2023-12-07T08:21:28;7.60;99.90
24902;DHT22;31328;51.402;0.016;2023-12-07T08:23:55;7.60;99.90
24902;DHT22;31328;51.402;0.016;2023-12-07T08:26:22;7.60;99.90
24902;DHT22;31328;51.402;0.016;2023-12-07T08:28:48;7.60;99.90
24902;DHT22;31328;51.402;0.016;2023-12-07T08:31:16;7.60;99.90
24902;DHT22;31328;51.402;0.016;2023-12-07T08:33:43;7.60;99.90
24902;DHT22;31328;51.402;0.016;2023-12-07T08:36:10;7.60;99.90
24902;DHT22;31328;51.402;0.016;2023-12-07T08:38:36;7.60;99.90
24902;DHT22;31328;51.402;0.016;2023-12-07T08:41:03;7.60;99.90
24902;DHT22;31328;51.402;0.016;2023-12-07T08:43:29;7.60;99.90
24902;DHT22;31328;51.402;0.016;2023-12-07T08:45:57;7.70;99.90
24902;DHT22;31328;51.402;0.016;2023-12-07T08:48:23;7.70;99.90
24902;DHT22;31328;51.402;0.016;2023-12-07T08:50:50;7.70;99.90
24902;DHT22;31328;51.402;0.016;2023-12-07T08:53:17;7.70;99.90
24902;DHT22;31328;51.402;0.016;2023-12-07T08:55:44;7.70;99.90
24902;DHT22;31328;51.402;0.016;2023-12-07T08:58:11;7.70;99.90
24902;DHT22;31328;51.402;0.016;2023-12-07T09:00:38;7.80;99.90
24902;DHT22;31328;51.402;0.016;2023-12-07T09:03:04;7.80;99.90
24902;DHT22;31328;51.402;0.016;2023-12-07T09:05:31;7.80;99.90
24902;DHT22;31328;51.402;0.016;2023-12-07T09:07:57;7.80;99.90
24902;DHT22;31328;51.402;0.016;2023-12-07T09:10:24;7.80;99.90
24902;DHT22;31328;51.402;0.016;2023-12-07T09:12:50;7.80;99.90
24902;DHT22;31328;51.402;0.016;2023-12-07T09:15:17;7.80;99.90
24902;DHT22;31328;51.402;0.016;2023-12-07T09:17:43;7.90;99.90
24902;DHT22;31328;51.402;0.016;2023-12-07T09:20:10;7.90;99.90
24902;DHT22;31328;51.402;0.016;2023-12-07T09:22:44;7.90;99.90
24902;DHT22;31328;51.402;0.016;2023-12-07T09:25:12;7.90;99.90
24902;DHT22;31328;51.402;0.016;2023-12-07T09:27:39;7.90;99.90
24902;DHT22;31328;51.402;0.016;2023-12-07T09:30:09;7.90;99.90
24902;DHT22;31328;51.402;0.016;2023-12-07T09:32:40;7.90;99.90
24902;DHT22;31328;51.402;0.016;2023-12-07T09:35:09;8.00;99.90
24902;DHT22;31328;51.402;0.016;2023-12-07T09:37:46;8.00;99.90
24902;DHT22;31328;51.402;0.016;2023-12-07T09:40:20;8.00;99.90
24902;DHT22;31328;51.402;0.016;2023-12-07T09:42:47;8.10;99.90
24902;DHT22;31328;51.402;0.016;2023-12-07T09:45:15;8.10;99.90
24902;DHT22;31328;51.402;0.016;2023-12-07T09:47:44;8.10;99.90
24902;DHT22;31328;51.402;0.016;2023-12-07T09:50:12;8.10;99.90
24902;DHT22;31328;51.402;0.016;2023-12-07T09:52:42;8.20;99.90
24902;DHT22;31328;51.402;0.016;2023-12-07T09:55:09;8.20;99.90
24902;DHT22;31328;51.402;0.016;2023-12-07T09:57:38;8.20;99.90
24902;DHT22;31328;51.402;0.016;2023-12-07T10:00:05;8.30;99.90
24902;DHT22;31328;51.402;0.016;2023-12-07T10:02:37;8.30;99.90
24902;DHT22;31328;51.402;0.016;2023-12-07T10:05:08;8.30;99.90
24902;DHT22;31328;51.402;0.016;2023-12-07T10:07:40;8.30;99.90
24902;DHT22;31328;51.402;0.016;2023-12-07T10:10:07;8.30;99.90
24902;DHT22;31328;51.402;0.016;2023-12-07T10:12:35;8.40;99.90
24902;DHT22;31328;51.402;0.016;2023-12-07T10:15:12;8.40;99.90
24902;DHT22;31328;51.402;0.016;2023-12-07T10:17:50;8.40;99.90
24902;DHT22;31328;51.402;0.016;2023-12-07T10:20:19;8.40;99.90
24902;DHT22;31328;51.402;0.016;2023-12-07T10:23:01;8.40;99.90
24902;DHT22;31328;51.402;0.016;2023-12-07T10:25:32;8.50;99.90
24902;DHT22;31328;51.402;0.016;2023-12-07T10:27:58;8.50;99.90
24902;DHT22;31328;51.402;0.016;2023-12-07T10:30:27;8.50;99.90
24902;DHT22;31328;51.402;0.016;2023-12-07T10:32:53;8.50;99.90
24902;DHT22;31328;51.402;0.016;2023-12-07T10:35:20;8.50;99.90
24902;DHT22;31328;51.402;0.016;2023-12-07T10:37:46;8.60;99.90
24902;DHT22;31328;51.402;0.016;2023-12-07T10:40:13;8.60;99.90
24902;DHT22;31328;51.402;0.016;2023-12-07T10:42:41;8.60;99.90
24902;DHT22;31328;51.402;0.016;2023-12-07T10:45:08;8.60;99.90
24902;DHT22;31328;51.402;0.016;2023-12-07T10:47:38;8.60;99.90
24902;DHT22;31328;51.402;0.016;2023-12-07T10:50:09;8.60;99.90
24902;DHT22;31328;51.402;0.016;2023-12-07T10:52:44;8.70;99.90
24902;DHT22;31328;51.402;0.016;2023-12-07T10:55:20;8.70;99.90
24902;DHT22;31328;51.402;0.016;2023-12-07T10:57:52;8.70;99.90
24902;DHT22;31328;51.402;0.016;2023-12-07T11:00:20;8.70;99.90
24902;DHT22;31328;51.402;0.016;2023-12-07T11:02:50;8.80;99.90
24902;DHT22;31328;51.402;0.016;2023-12-07T11:05:20;8.80;99.90
24902;DHT22;31328;51.402;0.016;2023-12-07T11:07:57;8.80;99.90
24902;DHT22;31328;51.402;0.016;2023-12-07T11:13:22;8.90;99.90
24902;DHT22;31328;51.402;0.016;2023-12-07T11:15:51;8.90;99.90
24902;DHT22;31328;51.402;0.016;2023-12-07T11:18:17;8.90;99.90
24902;DHT22;31328;51.402;0.016;2023-12-07T11:20:47;8.90;99.90
24902;DHT22;31328;51.402;0.016;2023-12-07T11:23:17;8.90;99.90
24902;DHT22;31328;51.402;0.016;2023-12-07T11:25:48;8.90;99.90
24902;DHT22;31328;51.402;0.016;2023-12-07T11:28:15;8.90;99.90
24902;DHT22;31328;51.402;0.016;2023-12-07T11:30:46;8.90;99.90
24902;DHT22;31328;51.402;0.016;2023-12-07T11:33:15;8.90;99.90
24902;DHT22;31328;51.402;0.016;2023-12-07T11:36:14;8.90;99.90
24902;DHT22;31328;51.402;0.016;2023-12-07T11:41:29;9.00;99.90
24902;DHT22;31328;51.402;0.016;2023-12-07T11:43:58;9.00;99.90
24902;DHT22;31328;51.402;0.016;2023-12-07T11:46:25;8.90;99.90
24902;DHT22;31328;51.402;0.016;2023-12-07T11:48:52;9.00;99.90
24902;DHT22;31328;51.402;0.016;2023-12-07T11:51:18;9.00;99.90
24902;DHT22;31328;51.402;0.016;2023-12-07T11:53:45;9.00;99.90
24902;DHT22;31328;51.402;0.016;2023-12-07T11:56:11;9.00;99.90
24902;DHT22;31328;51.402;0.016;2023-12-07T11:58:39;9.00;99.90
24902;DHT22;31328;51.402;0.016;2023-12-07T12:01:06;9.00;99.90
24902;DHT22;31328;51.402;0.016;2023-12-07T12:03:33;9.00;99.90
24902;DHT22;31328;51.402;0.016;2023-12-07T12:06:01;9.00;99.90
24902;DHT22;31328;51.402;0.016;2023-12-07T12:08:28;9.00;99.90
24902;DHT22;31328;51.402;0.016;2023-12-07T12:10:55;9.00;99.90
24902;DHT22;31328;51.402;0.016;2023-12-07T12:13:30;9.00;99.90
24902;DHT22;31328;51.402;0.016;2023-12-07T12:15:57;9.00;99.90
24902;DHT22;31328;51.402;0.016;2023-12-07T12:18:24;9.00;99.90
24902;DHT22;31328;51.402;0.016;2023-12-07T12:20:53;9.00;99.90
24902;DHT22;31328;51.402;0.016;2023-12-07T12:23:20;9.00;99.90
24902;DHT22;31328;51.402;0.016;2023-12-07T12:25:47;9.00;99.90
24902;DHT22;31328;51.402;0.016;2023-12-07T12:28:16;9.00;99.90
24902;DHT22;31328;51.402;0.016;2023-12-07T12:30:45;9.00;99.90
24902;DHT22;31328;51.402;0.016;2023-12-07T12:33:13;9.00;99.90
24902;DHT22;31328;51.402;0.016;2023-12-07T12:35:40;9.00;99.90
24902;DHT22;31328;51.402;0.016;2023-12-07T12:38:11;9.00;99.90
24902;DHT22;31328;51.402;0.016;2023-12-07T12:40:38;9.00;99.90
24902;DHT22;31328;51.402;0.016;2023-12-07T12:43:05;9.00;99.90
24902;DHT22;31328;51.402;0.016;2023-12-07T12:45:33;9.00;99.90
24902;DHT22;31328;51.402;0.016;2023-12-07T12:47:59;9.00;99.90
24902;DHT22;31328;51.402;0.016;2023-12-07T12:50:37;9.00;99.90
24902;DHT22;31328;51.402;0.016;2023-12-07T12:53:06;9.00;99.90
24902;DHT22;31328;51.402;0.016;2023-12-07T12:55:37;9.00;99.90
24902;DHT22;31328;51.402;0.016;2023-12-07T12:58:05;8.90;99.90
24902;DHT22;31328;51.402;0.016;2023-12-07T13:00:34;8.90;99.90
24902;DHT22;31328;51.402;0.016;2023-12-07T13:03:02;8.90;99.90
24902;DHT22;31328;51.402;0.016;2023-12-07T13:05:30;8.90;99.90
24902;DHT22;31328;51.402;0.016;2023-12-07T13:07:56;8.90;99.90
24902;DHT22;31328;51.402;0.016;2023-12-07T13:10:23;8.90;99.90
24902;DHT22;31328;51.402;0.016;2023-12-07T13:12:49;8.90;99.90
24902;DHT22;31328;51.402;0.016;2023-12-07T13:15:15;8.90;99.90
24902;DHT22;31328;51.402;0.016;2023-12-07T13:17:42;8.90;99.90
24902;DHT22;31328;51.402;0.016;2023-12-07T13:20:09;8.90;99.90
24902;DHT22;31328;51.402;0.016;2023-12-07T13:22:37;8.90;99.90
24902;DHT22;31328;51.402;0.016;2023-12-07T13:25:06;8.90;99.90
24902;DHT22;31328;51.402;0.016;2023-12-07T13:27:33;8.90;99.90
24902;DHT22;31328;51.402;0.016;2023-12-07T13:30:00;8.90;99.90
24902;DHT22;31328;51.402;0.016;2023-12-07T13:32:27;8.80;99.90
24902;DHT22;31328;51.402;0.016;2023-12-07T13:34:54;8.80;99.90
24902;DHT22;31328;51.402;0.016;2023-12-07T13:37:20;8.80;99.90
24902;DHT22;31328;51.402;0.016;2023-12-07T13:39:47;8.80;99.90
24902;DHT22;31328;51.402;0.016;2023-12-07T13:42:19;8.80;99.90
24902;DHT22;31328;51.402;0.016;2023-12-07T13:44:45;8.80;99.90
24902;DHT22;31328;51.402;0.016;2023-12-07T13:47:12;8.80;99.90
24902;DHT22;31328;51.402;0.016;2023-12-07T13:49:39;8.80;99.90
24902;DHT22;31328;51.402;0.016;2023-12-07T13:52:05;8.80;99.90
24902;DHT22;31328;51.402;0.016;2023-12-07T13:54:32;8.80;99.90
24902;DHT22;31328;51.402;0.016;2023-12-07T13:56:59;8.80;99.90
24902;DHT22;31328;51.402;0.016;2023-12-07T13:59:25;8.80;99.90
24902;DHT22;31328;51.402;0.016;2023-12-07T14:01:52;8.80;99.90
24902;DHT22;31328;51.402;0.016;2023-12-07T14:04:18;8.70;99.90
24902;DHT22;31328;51.402;0.016;2023-12-07T14:06:45;8.80;99.90
24902;DHT22;31328;51.402;0.016;2023-12-07T14:09:12;8.70;99.90
24902;DHT22;31328;51.402;0.016;2023-12-07T14:11:38;8.70;99.90
24902;DHT22;31328;51.402;0.016;2023-12-07T14:14:05;8.70;99.90
24902;DHT22;31328;51.402;0.016;2023-12-07T14:16:32;8.70;99.90
24902;DHT22;31328;51.402;0.016;2023-12-07T14:18:58;8.60;99.90
24902;DHT22;31328;51.402;0.016;2023-12-07T14:21:25;8.60;99.90
24902;DHT22;31328;51.402;0.016;2023-12-07T14:23:51;8.60;99.90
24902;DHT22;31328;51.402;0.016;2023-12-07T14:26:20;8.60;99.90
24902;DHT22;31328;51.402;0.016;2023-12-07T14:28:46;8.50;99.90
24902;DHT22;31328;51.402;0.016;2023-12-07T14:31:13;8.50;99.90
24902;DHT22;31328;51.402;0.016;2023-12-07T14:33:43;8.50;99.90
24902;DHT22;31328;51.402;0.016;2023-12-07T14:36:10;8.50;99.90
24902;DHT22;31328;51.402;0.016;2023-12-07T14:38:38;8.50;99.90
24902;DHT22;31328;51.402;0.016;2023-12-07T14:41:07;8.50;99.90
24902;DHT22;31328;51.402;0.016;2023-12-07T14:43:33;8.40;99.90
24902;DHT22;31328;51.402;0.016;2023-12-07T14:46:00;8.40;99.90
24902;DHT22;31328;51.402;0.016;2023-12-07T14:48:28;8.40;99.90
24902;DHT22;31328;51.402;0.016;2023-12-07T14:50:54;8.40;99.90
24902;DHT22;31328;51.402;0.016;2023-12-07T14:53:21;8.40;99.90
24902;DHT22;31328;51.402;0.016;2023-12-07T14:55:49;8.40;99.90
24902;DHT22;31328;51.402;0.016;2023-12-07T14:58:17;8.40;99.90
24902;DHT22;31328;51.402;0.016;2023-12-07T15:00:44;8.40;99.90
24902;DHT22;31328;51.402;0.016;2023-12-07T15:03:10;8.40;99.90
24902;DHT22;31328;51.402;0.016;2023-12-07T15:05:37;8.30;99.90
24902;DHT22;31328;51.402;0.016;2023-12-07T15:08:04;8.30;99.90
24902;DHT22;31328;51.402;0.016;2023-12-07T15:10:30;8.30;99.90
24902;DHT22;31328;51.402;0.016;2023-12-07T15:12:56;8.30;99.90
24902;DHT22;31328;51.402;0.016;2023-12-07T15:15:23;8.20;99.90
24902;DHT22;31328;51.402;0.016;2023-12-07T15:17:49;8.20;99.90
24902;DHT22;31328;51.402;0.016;2023-12-07T15:20:16;8.20;99.90
24902;DHT22;31328;51.402;0.016;2023-12-07T15:22:42;8.20;99.90
24902;DHT22;31328;51.402;0.016;2023-12-07T15:25:10;8.20;99.90
24902;DHT22;31328;51.402;0.016;2023-12-07T15:27:37;8.20;99.90
24902;DHT22;31328;51.402;0.016;2023-12-07T15:30:04;8.10;99.90
24902;DHT22;31328;51.402;0.016;2023-12-07T15:32:33;8.10;99.90
24902;DHT22;31328;51.402;0.016;2023-12-07T15:34:59;8.10;99.90
24902;DHT22;31328;51.402;0.016;2023-12-07T15:37:26;8.10;99.90
24902;DHT22;31328;51.402;0.016;2023-12-07T15:39:52;8.10;99.90
24902;DHT22;31328;51.402;0.016;2023-12-07T15:42:19;8.10;99.90
24902;DHT22;31328;51.402;0.016;2023-12-07T15:44:45;8.10;99.90
24902;DHT22;31328;51.402;0.016;2023-12-07T15:47:12;8.10;99.90
24902;DHT22;31328;51.402;0.016;2023-12-07T15:49:38;8.10;99.90
24902;DHT22;31328;51.402;0.016;2023-12-07T15:52:07;8.00;99.90
24902;DHT22;31328;51.402;0.016;2023-12-07T15:54:33;8.00;99.90